CheckWX is a tool to help pilots better visualize weather data.  It is not intended as a substitute for an official pre-flight weather briefing.

13:30:29 UTC

SBTC METAR
Hotel Transamérica Airport
Una, Brazil
Current

18 hours ago

SBTC 062000Z 06009KT CAVOK 29/24 Q1009
Observed
Dec-6 @ 20:00 UTC
Wind
  • 060° at 9 KTS
Visibility
10,000+ meters
Flight Rules
VFR
Cloud Levels
  • Clear skies
Temperature
29°C / 84°F
Dewpoint
24°C / 75°F
Heat Index
33°C / 92°F
Humidity
74%
Altimeter
29.79" Hg
Pressure
1008.92 hPa
Previous

19 hours ago

SBTC 061900Z 09008KT CAVOK 29/25 Q1009
Observed
Dec-6 @ 19:00 UTC
Wind
  • 090° at 8 KTS
Visibility
10,000+ meters
Flight Rules
VFR
Cloud Levels
  • Clear skies
Temperature
29°C / 84°F
Dewpoint
25°C / 77°F
Heat Index
34°C / 94°F
Humidity
79%
Altimeter
29.79" Hg
Pressure
1008.92 hPa
Previous

20 hours ago

SBTC 061800Z 07007KT 9999 FEW025 30/25 Q1009
Observed
Dec-6 @ 18:00 UTC
Wind
  • 070° at 7 KTS
Visibility
10,000+ meters
Flight Rules
VFR
Cloud Levels
  • Few at 2,500' AGL
Temperature
30°C / 86°F
Dewpoint
25°C / 77°F
Heat Index
36°C / 97°F
Humidity
75%
Altimeter
29.79" Hg
Pressure
1008.92 hPa